MDPP/POP METAR and TAF weather

Enter ICAO airport designator
Station Type Date Time Source
MDPP METAR 2021/01/20 22:00 UTC NOAA

MDPP 202200Z 12006KT 9999 SCT018 BKN300 24/23 Q1015


Station Type Date Time Source
MDPP Decoded METAR 2021/01/20 22:00 UTC NOAA

Puerto Plata International, Dominican Republic (MDPP) 19-45N 070-33W
Jan 20, 2021 - 05:00 PM EST / 2021.01.20 2200 UTC
Wind: from the ESE (120 degrees) at 7 MPH (6 KT):0
Visibility: greater than 7 mile(s):0
Sky conditions: mostly cloudy
Temperature: 75 F (24 C)
Dew Point: 73 F (23 C)
Relative Humidity: 94%
Pressure (altimeter): 29.97 in. Hg (1015 hPa)
ob: MDPP 202200Z 12006KT 9999 SCT018 BKN300 24/23 Q1015
cycle: 22

Station Type Date Time Source
MDPP TAF 2021/01/20 18:36 UTC NOAA

TAF MDPP 201600Z 2018/2118 12008KT 9999 SCT020 PROB30 2018/2100 8000 -RA BKN016 SCT070
BECMG 2101/2103 00000KT

Example: see airport list